Time;durP1;ratioP1;P1;durP2;ratioP2;P2;SDS_P1;SDS_P2;PMS_P1;PMS_P2;Temp;Humidity;BMP_temperature;BMP_pressure;BME280_temperature;BME280_humidity;BME280_pressure;Samples;Min_cycle;Max_cycle;Signal;HPM_P1;HPM_P2
2024/02/24 00:09:47;;;;;;;26.10;13.60;;;;;;;7.62;96.21;97002.91;433863;1256;108168;-40
2024/02/24 00:19:55;;;;;;;16.80;10.50;;;;;;;7.68;96.09;97004.59;434073;1267;99259;-39
2024/02/24 00:30:03;;;;;;;19.60;10.60;;;;;;;7.70;96.18;96994.34;433935;1260;111440;-40
2024/02/24 00:40:12;;;;;;;14.70;8.30;;;;;;;7.72;96.30;96970.15;434031;1256;107287;-40
2024/02/24 00:50:19;;;;;;;13.10;8.20;;;;;;;7.88;96.14;96949.64;434062;1256;99151;-40
2024/02/24 01:00:26;;;;;;;13.20;7.00;;;;;;;8.07;95.74;96943.29;433757;1260;108834;-41
2024/02/24 01:10:33;;;;;;;11.50;7.00;;;;;;;8.16;95.44;96934.45;433833;1261;99224;-42
2024/02/24 01:20:40;;;;;;;14.60;8.50;;;;;;;8.15;95.27;96933.70;433901;1261;111924;-39
2024/02/24 01:30:48;;;;;;;11.90;7.70;;;;;;;8.09;95.10;96916.61;434047;1261;108361;-40
2024/02/24 01:40:56;;;;;;;11.10;7.30;;;;;;;8.13;94.60;96914.15;433868;1258;99240;-40
2024/02/24 01:51:04;;;;;;;15.60;7.50;;;;;;;8.19;94.30;96903.54;434016;1260;108544;-40
2024/02/24 02:01:11;;;;;;;11.30;6.60;;;;;;;8.18;93.95;96915.07;433958;1260;99231;-40
2024/02/24 02:11:19;;;;;;;13.10;8.00;;;;;;;8.07;93.80;96917.86;433914;1260;111862;-40
2024/02/24 02:21:27;;;;;;;10.90;7.20;;;;;;;7.94;93.75;96909.52;434799;1260;108592;-41
2024/02/24 02:31:34;;;;;;;9.70;6.00;;;;;;;7.89;93.80;96909.34;433811;1260;98822;-40
2024/02/24 02:41:41;;;;;;;12.00;6.00;;;;;;;7.86;93.94;96898.32;433863;1259;108244;-40
2024/02/24 02:51:48;;;;;;;10.90;6.40;;;;;;;7.83;93.90;96890.27;433990;1268;99230;-40
2024/02/24 03:01:58;;;;;;;12.70;8.30;;;;;;;7.80;94.00;96897.85;434066;1258;112192;-40
2024/02/24 03:12:06;;;;;;;13.20;6.40;;;;;;;7.79;94.06;96887.94;434080;1257;108028;-39
2024/02/24 03:22:13;;;;;;;10.20;6.40;;;;;;;7.83;94.00;96883.26;434077;1257;98755;-40
2024/02/24 03:32:20;;;;;;;9.30;5.80;;;;;;;7.90;93.97;96878.88;434085;1259;107788;-39
2024/02/24 03:42:27;;;;;;;9.60;5.90;;;;;;;7.98;93.82;96886.27;433975;1259;101535;-40
2024/02/24 03:52:34;;;;;;;12.90;7.60;;;;;;;7.98;93.80;96890.17;433945;1260;110829;-39
2024/02/24 04:02:40;;;;;;;8.50;5.60;;;;;;;8.00;93.74;96896.13;434111;1261;108261;-40
2024/02/24 04:12:47;;;;;;;8.50;4.90;;;;;;;8.07;93.69;96892.33;433729;1268;434406;-38
2024/02/24 04:22:55;;;;;;;7.20;4.80;;;;;;;8.10;93.57;96901.14;434040;1259;108112;-41
2024/02/24 04:33:02;;;;;;;12.90;7.20;;;;;;;8.07;93.58;96904.43;434092;1257;99243;-40
2024/02/24 04:43:10;;;;;;;11.10;5.20;;;;;;;8.04;93.49;96899.58;434047;1258;110998;-40
2024/02/24 04:53:17;;;;;;;10.90;6.10;;;;;;;8.10;93.54;96916.46;434005;1260;108345;-39
2024/02/24 05:03:24;;;;;;;10.50;6.40;;;;;;;8.15;93.43;96923.85;434217;1258;99243;-40
2024/02/24 05:13:31;;;;;;;14.30;9.00;;;;;;;8.18;93.54;96934.50;433983;1259;109559;-40
2024/02/24 05:23:39;;;;;;;10.60;5.60;;;;;;;8.23;93.38;96950.48;433961;1260;98002;-40
2024/02/24 05:33:47;;;;;;;7.10;5.80;;;;;;;8.29;93.19;96967.95;433988;1254;111693;-40
2024/02/24 05:43:54;;;;;;;11.80;7.20;;;;;;;8.35;93.35;97001.94;433937;1254;108940;-40
2024/02/24 05:54:01;;;;;;;12.30;8.30;;;;;;;8.32;93.51;97034.29;434188;1255;98050;-40
2024/02/24 06:04:08;;;;;;;12.40;10.00;;;;;;;8.13;93.37;97073.63;434179;1256;108609;-38
2024/02/24 06:14:18;;;;;;;9.20;7.50;;;;;;;7.85;93.25;97085.35;434015;1254;99269;-40
2024/02/24 06:24:26;;;;;;;7.00;6.00;;;;;;;7.58;93.40;97105.17;434115;1270;111756;-40
2024/02/24 06:34:33;;;;;;;6.30;5.30;;;;;;;7.37;93.63;97133.58;434002;1256;108559;-40
2024/02/24 06:44:41;;;;;;;9.20;6.40;;;;;;;7.21;93.83;97152.04;434061;1270;99327;-40
2024/02/24 06:54:50;;;;;;;6.80;6.00;;;;;;;7.12;93.98;97169.49;434089;1260;107761;-38
2024/02/24 07:04:57;;;;;;;6.80;4.70;;;;;;;7.06;93.99;97191.68;434068;1259;99263;-39
2024/02/24 07:15:04;;;;;;;12.90;9.00;;;;;;;6.80;93.95;97228.05;434128;1260;110294;-40
2024/02/24 07:25:11;;;;;;;2.40;2.00;;;;;;;6.47;94.06;97247.04;434206;1259;107846;-39
2024/02/24 07:45:25;;;;;;;4.80;3.20;;;;;;;6.22;93.96;97290.72;434041;1259;110111;-39
2024/02/24 08:05:38;;;;;;;3.70;2.80;;;;;;;6.31;94.34;97327.30;433980;1256;111017;-39
2024/02/24 08:15:46;;;;;;;6.30;2.60;;;;;;;6.41;94.05;97353.55;434234;1258;107684;-43
2024/02/24 08:25:53;;;;;;;4.70;3.00;;;;;;;6.24;94.31;97366.87;434244;1254;98818;-40
2024/02/24 08:36:03;;;;;;;4.20;3.30;;;;;;;6.28;94.28;97369.98;434104;1259;107935;-39
2024/02/24 08:46:09;;;;;;;2.90;2.00;;;;;;;6.55;94.37;97383.23;434107;1261;99039;-39
2024/02/24 08:56:19;;;;;;;3.30;2.20;;;;;;;6.72;94.25;97416.95;434186;1259;112208;-39
2024/02/24 09:16:32;;;;;;;3.40;2.40;;;;;;;6.41;94.10;97466.77;434250;1256;99867;-39
2024/02/24 09:26:40;;;;;;;3.20;2.80;;;;;;;6.45;93.66;97485.77;434145;1256;107983;-40
2024/02/24 09:36:47;;;;;;;5.00;4.20;;;;;;;6.68;93.88;97504.29;434071;1256;99294;-38
2024/02/24 09:46:55;;;;;;;8.70;6.40;;;;;;;7.04;93.92;97530.60;434145;1256;112137;-40
2024/02/24 09:57:04;;;;;;;7.30;5.30;;;;;;;7.15;93.46;97549.80;434184;1259;108584;-39
2024/02/24 10:17:16;;;;;;;6.30;5.10;;;;;;;7.07;92.64;97597.88;434173;1255;107899;-39
2024/02/24 10:27:24;;;;;;;24.30;11.50;;;;;;;7.07;92.66;97616.35;434231;1256;99353;-39
2024/02/24 10:37:32;;;;;;;17.40;10.00;;;;;;;7.03;92.38;97632.77;434285;1256;110662;-40
2024/02/24 10:48:00;;;;;;;16.10;8.50;;;;;;;7.31;92.44;97638.03;434085;1256;108582;-41
2024/02/24 10:58:06;;;;;;;15.80;9.10;;;;;;;7.32;91.58;97651.26;434117;1258;100215;-39
2024/02/24 11:08:44;;;;;;;7.80;5.30;;;;;;;7.34;91.79;97660.19;434202;1255;109641;-39
2024/02/24 11:18:57;;;;;;;5.40;3.80;;;;;;;7.78;91.50;97661.33;434190;1255;99234;-40
2024/02/24 11:29:07;;;;;;;3.90;2.90;;;;;;;8.55;90.67;97659.52;434082;1258;111983;-40
2024/02/24 11:39:15;;;;;;;8.30;4.00;;;;;;;8.60;89.94;97662.20;434150;1258;108275;-40
2024/02/24 11:49:21;;;;;;;11.20;5.40;;;;;;;8.48;89.45;97676.85;434125;1258;97997;-39
2024/02/24 11:59:30;;;;;;;12.00;7.90;;;;;;;8.70;89.39;97688.31;434101;1258;107909;-39
2024/02/24 12:19:46;;;;;;;7.10;4.00;;;;;;;9.13;88.56;97706.77;434053;1258;110876;-39
2024/02/24 12:29:53;;;;;;;11.30;5.50;;;;;;;8.99;88.11;97721.56;434111;1258;105970;-38
2024/02/24 12:40:00;;;;;;;7.70;4.40;;;;;;;8.97;88.00;97723.89;434095;1254;98262;-40
2024/02/24 12:50:05;;;;;;;4.20;3.20;;;;;;;9.34;88.07;97722.79;434045;1259;107300;-41
2024/02/24 13:00:16;;;;;;;4.10;3.20;;;;;;;9.56;87.26;97722.65;434057;1257;99250;-41
2024/02/24 13:10:23;;;;;;;16.70;9.00;;;;;;;9.37;86.29;97733.91;434196;1256;111569;-40
2024/02/24 13:20:31;;;;;;;4.00;3.20;;;;;;;9.33;85.36;97757.19;433899;1258;107552;-40
2024/02/24 13:30:38;;;;;;;7.90;4.80;;;;;;;9.53;85.45;97765.44;433899;1256;99355;-38
2024/02/24 13:40:44;;;;;;;18.20;12.70;;;;;;;9.59;85.07;97765.23;433911;1258;110069;-40
2024/02/24 13:50:51;;;;;;;7.10;5.20;;;;;;;9.48;84.61;97777.94;434024;1256;99226;-39
2024/02/24 14:00:59;;;;;;;7.30;6.20;;;;;;;9.53;84.33;97793.09;434031;1255;112954;-40
2024/02/24 14:11:07;;;;;;;9.80;5.30;;;;;;;9.48;83.78;97799.95;433941;1261;108379;-40
2024/02/24 14:21:14;;;;;;;4.30;2.90;;;;;;;9.59;83.44;97814.96;433808;1258;99227;-43
2024/02/24 14:41:27;;;;;;;6.90;5.20;;;;;;;9.51;82.96;97835.98;434040;1259;98847;-40
2024/02/24 14:51:35;;;;;;;9.10;4.70;;;;;;;9.45;82.85;97855.88;433950;1256;110990;-39
2024/02/24 15:01:42;;;;;;;10.50;5.00;;;;;;;9.15;82.37;97862.95;433803;1258;108592;-39
2024/02/24 15:11:49;;;;;;;7.70;5.20;;;;;;;8.89;82.22;97877.90;433780;1258;99231;-40
2024/02/24 15:21:57;;;;;;;13.60;8.20;;;;;;;8.69;82.25;97894.93;433895;1255;110626;-42
2024/02/24 15:32:05;;;;;;;12.10;7.50;;;;;;;8.50;82.14;97907.64;433806;1258;99263;-40
2024/02/24 15:42:12;;;;;;;12.20;7.70;;;;;;;8.37;82.03;97929.45;434110;1256;111477;-39
2024/02/24 15:52:19;;;;;;;24.80;14.20;;;;;;;8.18;82.13;97944.08;433927;1258;107617;-41
2024/02/24 16:02:27;;;;;;;19.40;13.80;;;;;;;7.88;82.08;97945.05;433930;1256;99262;-40
2024/02/24 16:12:33;;;;;;;21.80;13.30;;;;;;;7.58;82.13;97962.47;433429;1258;526204;-39
2024/02/24 16:22:41;;;;;;;34.40;19.40;;;;;;;7.28;82.28;97965.52;433902;1256;99234;-39
2024/02/24 16:32:47;;;;;;;44.00;26.70;;;;;;;7.04;82.28;97966.94;433939;1259;111700;-40
2024/02/24 16:42:55;;;;;;;53.90;28.40;;;;;;;6.94;82.76;97988.55;433987;1258;107716;-40
2024/02/24 16:53:02;;;;;;;59.80;32.20;;;;;;;6.81;83.13;97995.90;433997;1259;97942;-40
2024/02/24 17:03:08;;;;;;;77.30;41.60;;;;;;;6.48;82.99;98004.64;434645;1258;108166;-39
2024/02/24 17:13:14;;;;;;;75.70;42.70;;;;;;;6.16;83.41;98008.67;433906;1256;98056;-39
2024/02/24 17:23:22;;;;;;;72.40;41.10;;;;;;;5.96;83.52;98014.67;435178;1258;111897;-40
2024/02/24 17:33:29;;;;;;;79.20;38.80;;;;;;;5.80;83.47;98024.20;433908;1258;107368;-40
2024/02/24 17:43:36;;;;;;;137.10;68.40;;;;;;;5.63;83.83;98035.63;434036;1256;99204;-40
2024/02/24 17:53:45;;;;;;;169.50;83.30;;;;;;;5.40;84.10;98044.94;433820;1259;107991;-40
2024/02/24 18:03:53;;;;;;;126.40;70.70;;;;;;;5.10;84.24;98047.39;433745;1259;99244;-40
2024/02/24 18:14:00;;;;;;;131.50;71.90;;;;;;;4.91;84.57;98063.17;433877;1258;112990;-41
2024/02/24 18:24:06;;;;;;;103.30;59.00;;;;;;;4.84;84.64;98068.89;433729;1256;107185;-40
2024/02/24 18:54:29;;;;;;;139.70;74.10;;;;;;;4.71;85.45;98066.35;434063;1258;99333;-40
2024/02/24 19:04:36;;;;;;;143.20;78.00;;;;;;;4.75;85.90;98071.38;434067;1258;112184;-40
2024/02/24 19:14:43;;;;;;;117.80;66.10;;;;;;;4.56;85.90;98081.45;433750;1259;107315;-41
2024/02/24 19:25:01;;;;;;;110.10;63.10;;;;;;;4.58;85.98;98071.21;434077;1258;98075;-40
2024/02/24 19:35:09;;;;;;;106.70;62.30;;;;;;;4.63;86.10;98069.06;433824;1258;108625;-39
2024/02/24 19:45:15;;;;;;;131.40;69.80;;;;;;;4.79;86.63;98069.63;433812;1254;97940;-40
2024/02/24 19:55:22;;;;;;;125.40;69.40;;;;;;;4.74;86.42;98076.89;433843;1259;110981;-40
2024/02/24 20:05:28;;;;;;;103.10;59.90;;;;;;;4.64;86.73;98090.25;435189;1258;107293;-40
2024/02/24 20:25:42;;;;;;;80.30;47.00;;;;;;;4.46;86.65;98114.48;433799;1258;112395;-40
2024/02/24 20:35:50;;;;;;;77.00;44.10;;;;;;;4.37;86.62;98108.58;434145;1256;109325;-40
2024/02/24 20:45:57;;;;;;;70.60;40.10;;;;;;;4.34;86.79;98111.23;433982;1259;98014;-40
2024/02/24 20:56:05;;;;;;;88.00;47.90;;;;;;;4.25;86.95;98105.92;433699;1258;109437;-40
2024/02/24 21:06:13;;;;;;;97.60;53.30;;;;;;;4.20;87.11;98093.92;433881;1257;99044;-40
2024/02/24 21:16:21;;;;;;;87.90;51.50;;;;;;;4.02;87.00;98097.98;433742;1259;110991;-39
2024/02/24 21:26:28;;;;;;;69.60;44.10;;;;;;;3.91;87.02;98098.50;433745;1259;108592;-40
2024/02/24 21:36:35;;;;;;;75.40;42.60;;;;;;;3.88;87.04;98094.35;433772;1257;99323;-39
2024/02/24 21:46:43;;;;;;;69.00;39.20;;;;;;;3.84;87.22;98088.27;433599;1259;107602;-39
2024/02/24 22:06:58;;;;;;;90.90;47.50;;;;;;;3.77;87.76;98081.54;433914;1259;112191;-40
2024/02/24 22:17:04;;;;;;;55.70;34.90;;;;;;;3.85;87.65;98082.48;433882;1259;108547;-40
2024/02/24 22:27:11;;;;;;;54.50;30.30;;;;;;;3.93;87.93;98082.20;433925;1260;99467;-38
2024/02/24 22:47:23;;;;;;;99.20;58.30;;;;;;;4.07;88.03;98081.65;433838;1258;108698;-39
2024/02/24 22:57:31;;;;;;;122.50;62.90;;;;;;;3.91;88.04;98084.09;433929;1259;99261;-40
2024/02/24 23:07:38;;;;;;;108.10;55.90;;;;;;;3.79;88.06;98084.48;433978;1267;108560;-40
2024/02/24 23:17:44;;;;;;;69.70;38.90;;;;;;;3.75;88.08;98077.99;433872;1259;98838;-40
2024/02/24 23:27:51;;;;;;;59.10;34.50;;;;;;;3.78;87.93;98078.94;433892;1267;110657;-42
2024/02/24 23:37:57;;;;;;;84.80;43.50;;;;;;;3.85;88.28;98083.13;434103;1259;108585;-39
2024/02/24 23:48:04;;;;;;;85.60;44.90;;;;;;;3.79;88.25;98076.96;433914;1261;99237;-40
2024/02/24 23:58:11;;;;;;;83.00;43.70;;;;;;;3.64;88.29;98073.41;433980;1259;108023;-40
